Roald Amundsen — DARG — position and weather

sailwx.info

Track history (hours):
 
Tides and Currents Weather Stations Pressure Air Temp Water Temp Dewpoint Dewpoint Depression Visibility Wind Speed Wind Dir Waves Ship Positions

Roald Amundsen (Germany)

Built as a deep sea lugger in 1952. Converted and rigged as a traditional brig in 1992.

Ship's website: http://www.sailtraining.de/

Last reported at 2019-Aug-20 02:18 UTC. Time now 2019-Aug-22 09:25 UTC.
Position N 59°58' E 019°45'.

Length 50 m; beam 7.4 m; draft 4.5 m.

Type: Sailing vessel. MMSI: 211215170.

Date/timePositionNaut miles runAvg speedWind from/ knotsBaromVisibWave heightAir tempDewpointWater temp
2019-Aug-20 02:18N 59°58' E 019°45'1 3.2
2019-Aug-20 01:59N 59°58' E 019°43'2 3.2
2019-Aug-20 01:30N 59°59' E 019°41'2 3.2
2019-Aug-20 01:00N 60°00' E 019°38'1 2.7
2019-Aug-20 00:29N 60°01' E 019°35'1 2.2
2019-Aug-20 00:00N 60°01' E 019°34'0 0.3
2019-Aug-19 23:07N 60°01' E 019°33'0 2.1
2019-Aug-19 22:55N 60°01' E 019°34'1 2.0
2019-Aug-19 22:23N 60°00' E 019°35'1 2.1
2019-Aug-19 21:53N 59°59' E 019°37'2 2.1
2019-Aug-19 20:47N 59°57' E 019°39'1 2.7
2019-Aug-19 20:18N 59°56' E 019°40'2 3.5
2019-Aug-19 19:40N 59°55' E 019°37'1 3.7
2019-Aug-19 19:22N 59°54' E 019°35'2 4.1
2019-Aug-19 18:51N 59°53' E 019°32'2 4.1
2019-Aug-19 18:27N 59°52' E 019°29'2 4.4
2019-Aug-19 17:55N 59°50' E 019°26'2 4.6
2019-Aug-19 17:30N 59°49' E 019°23'2 4.7
2019-Aug-19 17:00N 59°47' E 019°20'2 4.8
2019-Aug-19 16:30N 59°45' E 019°17'3 5.6
2019-Aug-19 16:00N 59°44' E 019°12'2 4.3
2019-Aug-19 15:30N 59°42' E 019°11'2 4.8
2019-Aug-19 15:00N 59°40' E 019°10'2 4.5
2019-Aug-19 14:30N 59°37' E 019°09'2 4.1
2019-Aug-19 14:00N 59°35' E 019°08'2 3.4
2019-Aug-19 13:18N 59°33' E 019°08'1 3.2
2019-Aug-19 12:59N 59°32' E 019°07'2 3.2
2019-Aug-19 12:19N 59°30' E 019°05'1 2.8
2019-Aug-19 11:52N 59°29' E 019°04'2 2.8
2019-Aug-19 11:12N 59°28' E 019°01'1 2.9
2019-Aug-19 11:00N 59°28' E 019°00'2 3.6
2019-Aug-19 10:30N 59°26' E 018°58'2 3.6
2019-Aug-19 10:00N 59°25' E 018°55'2 3.1
2019-Aug-19 09:30N 59°24' E 018°53'2 3.4
2019-Aug-19 08:51N 59°22' E 018°51'3 4.2
2019-Aug-19 08:14N 59°20' E 018°49'1 4.8
2019-Aug-19 08:00N 59°19' E 018°50'1 1.5
2019-Aug-19 07:17N 59°19' E 018°52'0 0.0
2019-Aug-19 06:05N 59°19' E 018°52'0 0.0
2019-Aug-19 05:20N 59°19' E 018°52'0 0.0
2019-Aug-18 23:41N 59°19' E 018°52'0 0.0
2019-Aug-18 18:47N 59°19' E 018°52'0 0.0
2019-Aug-18 18:23N 59°19' E 018°52'0 0.0
2019-Aug-18 16:53N 59°19' E 018°52'0 0.0
2019-Aug-18 15:53N 59°19' E 018°52'0 0.0
2019-Aug-18 14:23N 59°19' E 018°52'0 0.0
2019-Aug-18 12:02N 59°19' E 018°52'0 0.0
2019-Aug-18 10:47N 59°19' E 018°52'0 0.0
2019-Aug-18 10:05N 59°19' E 018°52'0 0.1
2019-Aug-18 09:59N 59°19' E 018°52'0 0.0
2019-Aug-18 09:26N 59°19' E 018°52'1 1.0
2019-Aug-18 08:53N 59°18' E 018°52'1 2.6
2019-Aug-18 08:25N 59°17' E 018°54'5 2.8
2019-Aug-18 06:46N 59°15' E 019°01'4 4.5
2019-Aug-18 05:55N 59°11' E 019°01'53 4.8
2019-Aug-17 18:42N 58°22' E 018°21'1 3.3
2019-Aug-17 18:30N 58°21' E 018°21'4 3.9
2019-Aug-17 17:30N 58°18' E 018°20'2 4.6
2019-Aug-17 17:00N 58°15' E 018°19'3 4.9
2019-Aug-17 16:27N 58°13' E 018°20'8 4.5
2019-Aug-17 14:34N 58°05' E 018°23'0 3.6
2019-Aug-17 14:30N 58°04' E 018°23'4 4.4
2019-Aug-17 13:36N 58°00' E 018°23'1 4.9
2019-Aug-17 13:30N 57°60' E 018°24'3 5.2
2019-Aug-17 13:01N 57°57' E 018°24'2 4.8
2019-Aug-17 12:30N 57°55' E 018°25'2 3.7
2019-Aug-17 12:00N 57°53' E 018°25'1 2.9
2019-Aug-17 11:30N 57°52' E 018°23'14 2.0
2019-Aug-17 04:24N 57°38' E 018°17'0 0.0
2019-Aug-17 04:00N 57°38' E 018°17'  
2019-Aug-14 15:48N 56°04' E 016°58'2 5.7
2019-Aug-14 15:23N 56°03' E 016°54'2 5.5
2019-Aug-14 14:56N 56°01' E 016°51'2 5.4
2019-Aug-14 14:28N 56°00' E 016°47'3 6.4
2019-Aug-14 14:00N 55°59' E 016°43'3 6.1
2019-Aug-14 13:30N 55°57' E 016°38'3 5.6
2019-Aug-14 13:00N 55°55' E 016°34'3 5.1
2019-Aug-14 12:30N 55°54' E 016°30'3 5.1
2019-Aug-14 12:00N 55°53' E 016°26'2 4.9
2019-Aug-14 11:30N 55°52' E 016°22'2 4.8
2019-Aug-14 11:00N 55°51' E 016°18'2 4.4
2019-Aug-14 10:30N 55°49' E 016°15'2 4.5
2019-Aug-14 10:00N 55°48' E 016°11'2 4.4
2019-Aug-14 09:30N 55°47' E 016°08'2 4.3
2019-Aug-14 09:00N 55°46' E 016°05'2 4.1
2019-Aug-14 08:30N 55°45' E 016°02'2 4.1
2019-Aug-14 08:00N 55°44' E 015°59'2 4.5
2019-Aug-14 07:30N 55°43' E 015°55'2 4.3
2019-Aug-14 07:00N 55°42' E 015°52'2 4.6
2019-Aug-14 06:30N 55°41' E 015°48'2 4.9
2019-Aug-14 06:00N 55°40' E 015°44'2 4.9
2019-Aug-14 05:30N 55°38' E 015°41'2 4.7
2019-Aug-14 05:00N 55°37' E 015°37'2 4.7
2019-Aug-14 04:30N 55°36' E 015°33'3 5.3
2019-Aug-14 04:00N 55°35' E 015°29'2 4.7
2019-Aug-14 03:30N 55°33' E 015°26'3 5.2
2019-Aug-14 03:00N 55°32' E 015°22'3 5.4
2019-Aug-14 02:30N 55°31' E 015°18'3 5.4
2019-Aug-14 02:00N 55°30' E 015°13'3 5.0
2019-Aug-14 01:30N 55°29' E 015°09'2 4.9
2019-Aug-14 01:00N 55°28' E 015°05'2 4.9
2019-Aug-14 00:30N 55°27' E 015°01'3 5.2
2019-Aug-14 00:00N 55°26' E 014°57'3 5.2
2019-Aug-13 23:30N 55°25' E 014°53'3 5.1
2019-Aug-13 23:00N 55°24' E 014°49'5 4.2
2019-Aug-13 21:45N 55°21' E 014°41'75 5.5
2019-Aug-13 07:59N 54°41' E 012°50'3 6.1
2019-Aug-13 07:30N 54°40' E 012°45'3 5.2
2019-Aug-13 06:59N 54°39' E 012°41'5 4.2
2019-Aug-13 05:44N 54°36' E 012°33'2 5.7
2019-Aug-13 05:23N 54°35' E 012°31'2 4.7
2019-Aug-13 04:52N 54°33' E 012°28'6 4.1
2019-Aug-13 03:28N 54°28' E 012°22'5 4.0
2019-Aug-13 02:06N 54°24' E 012°17'1 2.2
2019-Aug-13 01:26N 54°23' E 012°15'3 2.4
2019-Aug-13 00:11N 54°21' E 012°12'4 3.3
2019-Aug-12 22:56N 54°17' E 012°07'1 0.6
2019-Aug-12 21:47N 54°17' E 012°07'0 0.2
2019-Aug-12 21:30N 54°17' E 012°07'0 0.2
2019-Aug-12 21:00N 54°17' E 012°07'0 0.2
2019-Aug-12 20:21N 54°17' E 012°07'0 0.3
2019-Aug-12 19:40N 54°17' E 012°07'1 0.5
2019-Aug-12 17:44N 54°16' E 012°06'1 5.5
2019-Aug-12 17:30N 54°15' E 012°06'8 6.2
2019-Aug-12 16:14N 54°07' E 012°06'1 4.3
2019-Aug-12 16:00N 54°06' E 012°06'0 0.1
2019-Aug-12 15:06N 54°06' E 012°06'0 0.0
2019-Aug-12 14:57N 54°06' E 012°06'0 0.0
2019-Aug-12 11:36N 54°06' E 012°06'0 0.0
2019-Aug-12 11:21N 54°06' E 012°06'0 0.0
2019-Aug-12 10:12N 54°06' E 012°06'0 0.0
2019-Aug-12 10:00N 54°06' E 012°06'0 0.0
2019-Aug-12 09:18N 54°06' E 012°06'0 0.0
2019-Aug-12 08:09N 54°06' E 012°06'0 0.0
2019-Aug-12 07:42N 54°06' E 012°06'0 0.0
2019-Aug-12 06:36N 54°06' E 012°06'0 0.1
2019-Aug-12 06:30N 54°06' E 012°06'0 0.0
2019-Aug-12 05:51N 54°06' E 012°06'0 0.0
2019-Aug-12 05:30N 54°06' E 012°06'0 0.0
2019-Aug-12 04:57N 54°06' E 012°06'0 0.0
2019-Aug-12 04:27N 54°06' E 012°06'0 0.0
2019-Aug-12 03:51N 54°06' E 012°06'0 0.0
2019-Aug-12 03:27N 54°06' E 012°06'0 0.0
2019-Aug-12 02:57N 54°06' E 012°06'0 0.0
2019-Aug-12 02:26N 54°06' E 012°06'0 0.0
2019-Aug-12 01:57N 54°06' E 012°06'0 0.0
2019-Aug-12 01:29N 54°06' E 012°06'0 0.0
2019-Aug-12 00:57N 54°06' E 012°06'0 0.0
2019-Aug-12 00:26N 54°06' E 012°06'0 0.0
2019-Aug-11 23:57N 54°06' E 012°06'0 0.0
2019-Aug-11 23:27N 54°06' E 012°06'0 0.0
2019-Aug-11 22:56N 54°06' E 012°06'0 0.0
2019-Aug-11 22:26N 54°06' E 012°06'0 0.0
2019-Aug-11 21:59N 54°06' E 012°06'0 0.0
2019-Aug-11 21:29N 54°06' E 012°06'0 0.0
2019-Aug-11 20:59N 54°06' E 012°06'0 0.0
2019-Aug-11 20:27N 54°06' E 012°06'0 0.0
2019-Aug-11 19:56N 54°06' E 012°06'0 0.0
2019-Aug-11 19:27N 54°06' E 012°06'0 0.0
2019-Aug-11 18:57N 54°06' E 012°06'0 0.0
2019-Aug-11 18:27N 54°06' E 012°06'0 0.0
2019-Aug-11 17:57N 54°06' E 012°06'0 0.0
2019-Aug-11 17:27N 54°06' E 012°06'0 0.0
2019-Aug-11 16:59N 54°06' E 012°06'0 0.0
2019-Aug-11 16:27N 54°06' E 012°06'0 0.0
2019-Aug-11 15:57N 54°06' E 012°06'0 0.0
2019-Aug-11 15:27N 54°06' E 012°06'0 0.0
2019-Aug-11 14:57N 54°06' E 012°06'0 0.0
2019-Aug-11 14:26N 54°06' E 012°06'0 0.0
2019-Aug-11 13:56N 54°06' E 012°06'1 2.5
2019-Aug-11 13:30N 54°07' E 012°06'2 3.6
2019-Aug-11 13:00N 54°09' E 012°06'2 3.5
2019-Aug-11 12:30N 54°10' E 012°06'2 4.7
2019-Aug-11 11:58N 54°13' E 012°04'2 3.5
2019-Aug-11 11:27N 54°14' E 012°03'1 2.5
2019-Aug-11 11:00N 54°15' E 012°02'1 2.7
2019-Aug-11 10:29N 54°14' E 012°03'1 2.8
2019-Aug-11 09:58N 54°13' E 012°04'2 4.5
2019-Aug-11 09:28N 54°11' E 012°06'2 4.1
2019-Aug-11 09:00N 54°09' E 012°06'2 4.6
2019-Aug-11 08:30N 54°07' E 012°06'1 1.3
2019-Aug-11 07:57N 54°06' E 012°06'0 0.0
2019-Aug-11 07:28N 54°06' E 012°06'0 0.0
2019-Aug-11 06:58N 54°06' E 012°06'0 0.0
2019-Aug-11 06:28N 54°06' E 012°06'0 0.0
2019-Aug-11 05:58N 54°06' E 012°06'0 0.0
2019-Aug-11 05:28N 54°06' E 012°06'0 0.0
2019-Aug-11 04:58N 54°06' E 012°06'0 0.0
2019-Aug-11 04:28N 54°06' E 012°06'0 0.0
2019-Aug-11 03:58N 54°06' E 012°06'0 0.0
2019-Aug-11 03:28N 54°06' E 012°06'0 0.0
2019-Aug-11 02:58N 54°06' E 012°06'0 0.0
2019-Aug-11 02:28N 54°06' E 012°06'0 0.0
2019-Aug-11 01:58N 54°06' E 012°06'0 0.0
2019-Aug-11 01:28N 54°06' E 012°06'0 0.0
2019-Aug-11 00:58N 54°06' E 012°06'0 0.0
2019-Aug-11 00:28N 54°06' E 012°06'0 0.0
2019-Aug-10 23:58N 54°06' E 012°06'0 0.0
2019-Aug-10 23:28N 54°06' E 012°06'0 0.0
2019-Aug-10 22:58N 54°06' E 012°06'0 0.0
2019-Aug-10 22:28N 54°06' E 012°06'0 0.0
2019-Aug-10 21:58N 54°06' E 012°06'0 0.0
2019-Aug-10 21:28N 54°06' E 012°06'0 0.0
2019-Aug-10 20:58N 54°06' E 012°06'0 0.0
2019-Aug-10 20:28N 54°06' E 012°06'0 0.0
2019-Aug-10 19:58N 54°06' E 012°06'0 0.0
2019-Aug-10 19:28N 54°06' E 012°06'0 0.0
2019-Aug-10 18:58N 54°06' E 012°06'0 0.0
2019-Aug-10 18:28N 54°06' E 012°06'0 0.0
2019-Aug-10 17:58N 54°06' E 012°06'0 0.0
2019-Aug-10 17:28N 54°06' E 012°06'0 0.0
2019-Aug-10 16:58N 54°06' E 012°06'0 0.0
2019-Aug-10 16:28N 54°06' E 012°06'0 0.0
2019-Aug-10 15:58N 54°06' E 012°06'0 0.0
2019-Aug-10 15:28N 54°06' E 012°06'0 0.0
2019-Aug-10 14:59N 54°06' E 012°06'0 0.5
2019-Aug-10 14:30N 54°06' E 012°07'3 4.4
2019-Aug-10 13:56N 54°09' E 012°06'1 3.1
2019-Aug-10 13:30N 54°10' E 012°06'1 2.8
2019-Aug-10 13:00N 54°11' E 012°05'2 4.1
2019-Aug-10 12:28N 54°13' E 012°03'2 3.7
2019-Aug-10 12:00N 54°14' E 012°02'2 4.2
2019-Aug-10 11:30N 54°16' E 011°59'0 0.7
2019-Aug-10 10:59N 54°16' E 011°59'1 2.8
2019-Aug-10 10:29N 54°15' E 012°01'2 3.9
2019-Aug-10 10:00N 54°13' E 012°03'2 3.1
2019-Aug-10 09:31N 54°12' E 012°04'3 5.6
2019-Aug-10 08:58N 54°09' E 012°06'2 4.5
2019-Aug-10 08:31N 54°07' E 012°06'1 2.3
2019-Aug-10 07:56N 54°06' E 012°06'0 0.0
2019-Aug-10 07:28N 54°06' E 012°06'0 0.0
2019-Aug-10 06:56N 54°06' E 012°06'0 0.0
2019-Aug-10 05:52N 54°06' E 012°06'  
Track history (hours):
 
Tides and Currents Weather Stations Pressure Air Temp Water Temp Dewpoint Dewpoint Depression Visibility Wind Speed Wind Dir Waves Ship Positions

Roald Amundsen (Germany)

Built as a deep sea lugger in 1952. Converted and rigged as a traditional brig in 1992.

Ship's website: http://www.sailtraining.de/

Last reported at 2019-Aug-20 02:18 UTC. Time now 2019-Aug-22 09:25 UTC.
Position N 59°58' E 019°45'.

Length 50 m; beam 7.4 m; draft 4.5 m.

Type: Sailing vessel. MMSI: 211215170.

Date/timePositionNaut miles runAvg speedWind from/ knotsBaromVisibWave heightAir tempDewpointWater temp
2019-Aug-20 02:18N 59°58' E 019°45'1 3.2
2019-Aug-20 01:59N 59°58' E 019°43'2 3.2
2019-Aug-20 01:30N 59°59' E 019°41'2 3.2
2019-Aug-20 01:00N 60°00' E 019°38'1 2.7
2019-Aug-20 00:29N 60°01' E 019°35'1 2.2
2019-Aug-20 00:00N 60°01' E 019°34'0 0.3
2019-Aug-19 23:07N 60°01' E 019°33'0 2.1
2019-Aug-19 22:55N 60°01' E 019°34'1 2.0
2019-Aug-19 22:23N 60°00' E 019°35'1 2.1
2019-Aug-19 21:53N 59°59' E 019°37'2 2.1
2019-Aug-19 20:47N 59°57' E 019°39'1 2.7
2019-Aug-19 20:18N 59°56' E 019°40'2 3.5
2019-Aug-19 19:40N 59°55' E 019°37'1 3.7
2019-Aug-19 19:22N 59°54' E 019°35'2 4.1
2019-Aug-19 18:51N 59°53' E 019°32'2 4.1
2019-Aug-19 18:27N 59°52' E 019°29'2 4.4
2019-Aug-19 17:55N 59°50' E 019°26'2 4.6
2019-Aug-19 17:30N 59°49' E 019°23'2 4.7
2019-Aug-19 17:00N 59°47' E 019°20'2 4.8
2019-Aug-19 16:30N 59°45' E 019°17'3 5.6
2019-Aug-19 16:00N 59°44' E 019°12'2 4.3
2019-Aug-19 15:30N 59°42' E 019°11'2 4.8
2019-Aug-19 15:00N 59°40' E 019°10'2 4.5
2019-Aug-19 14:30N 59°37' E 019°09'2 4.1
2019-Aug-19 14:00N 59°35' E 019°08'2 3.4
2019-Aug-19 13:18N 59°33' E 019°08'1 3.2
2019-Aug-19 12:59N 59°32' E 019°07'2 3.2
2019-Aug-19 12:19N 59°30' E 019°05'1 2.8
2019-Aug-19 11:52N 59°29' E 019°04'2 2.8
2019-Aug-19 11:12N 59°28' E 019°01'1 2.9
2019-Aug-19 11:00N 59°28' E 019°00'2 3.6
2019-Aug-19 10:30N 59°26' E 018°58'2 3.6
2019-Aug-19 10:00N 59°25' E 018°55'2 3.1
2019-Aug-19 09:30N 59°24' E 018°53'2 3.4
2019-Aug-19 08:51N 59°22' E 018°51'3 4.2
2019-Aug-19 08:14N 59°20' E 018°49'1 4.8
2019-Aug-19 08:00N 59°19' E 018°50'1 1.5
2019-Aug-19 07:17N 59°19' E 018°52'0 0.0
2019-Aug-19 06:05N 59°19' E 018°52'0 0.0
2019-Aug-19 05:20N 59°19' E 018°52'0 0.0
2019-Aug-18 23:41N 59°19' E 018°52'0 0.0
2019-Aug-18 18:47N 59°19' E 018°52'0 0.0
2019-Aug-18 18:23N 59°19' E 018°52'0 0.0
2019-Aug-18 16:53N 59°19' E 018°52'0 0.0
2019-Aug-18 15:53N 59°19' E 018°52'0 0.0
2019-Aug-18 14:23N 59°19' E 018°52'0 0.0
2019-Aug-18 12:02N 59°19' E 018°52'0 0.0
2019-Aug-18 10:47N 59°19' E 018°52'0 0.0
2019-Aug-18 10:05N 59°19' E 018°52'0 0.1
2019-Aug-18 09:59N 59°19' E 018°52'0 0.0
2019-Aug-18 09:26N 59°19' E 018°52'1 1.0
2019-Aug-18 08:53N 59°18' E 018°52'1 2.6
2019-Aug-18 08:25N 59°17' E 018°54'5 2.8
2019-Aug-18 06:46N 59°15' E 019°01'4 4.5
2019-Aug-18 05:55N 59°11' E 019°01'53 4.8
2019-Aug-17 18:42N 58°22' E 018°21'1 3.3
2019-Aug-17 18:30N 58°21' E 018°21'4 3.9
2019-Aug-17 17:30N 58°18' E 018°20'2 4.6
2019-Aug-17 17:00N 58°15' E 018°19'3 4.9
2019-Aug-17 16:27N 58°13' E 018°20'8 4.5
2019-Aug-17 14:34N 58°05' E 018°23'0 3.6
2019-Aug-17 14:30N 58°04' E 018°23'4 4.4
2019-Aug-17 13:36N 58°00' E 018°23'1 4.9
2019-Aug-17 13:30N 57°60' E 018°24'3 5.2
2019-Aug-17 13:01N 57°57' E 018°24'2 4.8
2019-Aug-17 12:30N 57°55' E 018°25'2 3.7
2019-Aug-17 12:00N 57°53' E 018°25'1 2.9
2019-Aug-17 11:30N 57°52' E 018°23'14 2.0
2019-Aug-17 04:24N 57°38' E 018°17'0 0.0
2019-Aug-17 04:00N 57°38' E 018°17'  
2019-Aug-14 15:48N 56°04' E 016°58'2 5.7
2019-Aug-14 15:23N 56°03' E 016°54'2 5.5
2019-Aug-14 14:56N 56°01' E 016°51'2 5.4
2019-Aug-14 14:28N 56°00' E 016°47'3 6.4
2019-Aug-14 14:00N 55°59' E 016°43'3 6.1
2019-Aug-14 13:30N 55°57' E 016°38'3 5.6
2019-Aug-14 13:00N 55°55' E 016°34'3 5.1
2019-Aug-14 12:30N 55°54' E 016°30'3 5.1
2019-Aug-14 12:00N 55°53' E 016°26'2 4.9
2019-Aug-14 11:30N 55°52' E 016°22'2 4.8
2019-Aug-14 11:00N 55°51' E 016°18'2 4.4
2019-Aug-14 10:30N 55°49' E 016°15'2 4.5
2019-Aug-14 10:00N 55°48' E 016°11'2 4.4
2019-Aug-14 09:30N 55°47' E 016°08'2 4.3
2019-Aug-14 09:00N 55°46' E 016°05'2 4.1
2019-Aug-14 08:30N 55°45' E 016°02'2 4.1
2019-Aug-14 08:00N 55°44' E 015°59'2 4.5
2019-Aug-14 07:30N 55°43' E 015°55'2 4.3
2019-Aug-14 07:00N 55°42' E 015°52'2 4.6
2019-Aug-14 06:30N 55°41' E 015°48'2 4.9
2019-Aug-14 06:00N 55°40' E 015°44'2 4.9
2019-Aug-14 05:30N 55°38' E 015°41'2 4.7
2019-Aug-14 05:00N 55°37' E 015°37'2 4.7
2019-Aug-14 04:30N 55°36' E 015°33'3 5.3
2019-Aug-14 04:00N 55°35' E 015°29'2 4.7
2019-Aug-14 03:30N 55°33' E 015°26'3 5.2
2019-Aug-14 03:00N 55°32' E 015°22'3 5.4
2019-Aug-14 02:30N 55°31' E 015°18'3 5.4
2019-Aug-14 02:00N 55°30' E 015°13'3 5.0
2019-Aug-14 01:30N 55°29' E 015°09'2 4.9
2019-Aug-14 01:00N 55°28' E 015°05'2 4.9
2019-Aug-14 00:30N 55°27' E 015°01'3 5.2
2019-Aug-14 00:00N 55°26' E 014°57'3 5.2
2019-Aug-13 23:30N 55°25' E 014°53'3 5.1
2019-Aug-13 23:00N 55°24' E 014°49'5 4.2
2019-Aug-13 21:45N 55°21' E 014°41'75 5.5
2019-Aug-13 07:59N 54°41' E 012°50'3 6.1
2019-Aug-13 07:30N 54°40' E 012°45'3 5.2
2019-Aug-13 06:59N 54°39' E 012°41'5 4.2
2019-Aug-13 05:44N 54°36' E 012°33'2 5.7
2019-Aug-13 05:23N 54°35' E 012°31'2 4.7
2019-Aug-13 04:52N 54°33' E 012°28'6 4.1
2019-Aug-13 03:28N 54°28' E 012°22'5 4.0
2019-Aug-13 02:06N 54°24' E 012°17'1 2.2
2019-Aug-13 01:26N 54°23' E 012°15'3 2.4
2019-Aug-13 00:11N 54°21' E 012°12'4 3.3
2019-Aug-12 22:56N 54°17' E 012°07'1 0.6
2019-Aug-12 21:47N 54°17' E 012°07'0 0.2
2019-Aug-12 21:30N 54°17' E 012°07'0 0.2
2019-Aug-12 21:00N 54°17' E 012°07'0 0.2
2019-Aug-12 20:21N 54°17' E 012°07'0 0.3
2019-Aug-12 19:40N 54°17' E 012°07'1 0.5
2019-Aug-12 17:44N 54°16' E 012°06'1 5.5
2019-Aug-12 17:30N 54°15' E 012°06'8 6.2
2019-Aug-12 16:14N 54°07' E 012°06'1 4.3
2019-Aug-12 16:00N 54°06' E 012°06'0 0.1
2019-Aug-12 15:06N 54°06' E 012°06'0 0.0
2019-Aug-12 14:57N 54°06' E 012°06'0 0.0
2019-Aug-12 11:36N 54°06' E 012°06'0 0.0
2019-Aug-12 11:21N 54°06' E 012°06'0 0.0
2019-Aug-12 10:12N 54°06' E 012°06'0 0.0
2019-Aug-12 10:00N 54°06' E 012°06'0 0.0
2019-Aug-12 09:18N 54°06' E 012°06'0 0.0
2019-Aug-12 08:09N 54°06' E 012°06'0 0.0
2019-Aug-12 07:42N 54°06' E 012°06'0 0.0
2019-Aug-12 06:36N 54°06' E 012°06'0 0.1
2019-Aug-12 06:30N 54°06' E 012°06'0 0.0
2019-Aug-12 05:51N 54°06' E 012°06'0 0.0
2019-Aug-12 05:30N 54°06' E 012°06'0 0.0
2019-Aug-12 04:57N 54°06' E 012°06'0 0.0
2019-Aug-12 04:27N 54°06' E 012°06'0 0.0
2019-Aug-12 03:51N 54°06' E 012°06'0 0.0
2019-Aug-12 03:27N 54°06' E 012°06'0 0.0
2019-Aug-12 02:57N 54°06' E 012°06'0 0.0
2019-Aug-12 02:26N 54°06' E 012°06'0 0.0
2019-Aug-12 01:57N 54°06' E 012°06'0 0.0
2019-Aug-12 01:29N 54°06' E 012°06'0 0.0
2019-Aug-12 00:57N 54°06' E 012°06'0 0.0
2019-Aug-12 00:26N 54°06' E 012°06'0 0.0
2019-Aug-11 23:57N 54°06' E 012°06'0 0.0
2019-Aug-11 23:27N 54°06' E 012°06'0 0.0
2019-Aug-11 22:56N 54°06' E 012°06'0 0.0
2019-Aug-11 22:26N 54°06' E 012°06'0 0.0
2019-Aug-11 21:59N 54°06' E 012°06'0 0.0
2019-Aug-11 21:29N 54°06' E 012°06'0 0.0
2019-Aug-11 20:59N 54°06' E 012°06'0 0.0
2019-Aug-11 20:27N 54°06' E 012°06'0 0.0
2019-Aug-11 19:56N 54°06' E 012°06'0 0.0
2019-Aug-11 19:27N 54°06' E 012°06'0 0.0
2019-Aug-11 18:57N 54°06' E 012°06'0 0.0
2019-Aug-11 18:27N 54°06' E 012°06'0 0.0
2019-Aug-11 17:57N 54°06' E 012°06'0 0.0
2019-Aug-11 17:27N 54°06' E 012°06'0 0.0
2019-Aug-11 16:59N 54°06' E 012°06'0 0.0
2019-Aug-11 16:27N 54°06' E 012°06'0 0.0
2019-Aug-11 15:57N 54°06' E 012°06'0 0.0
2019-Aug-11 15:27N 54°06' E 012°06'0 0.0
2019-Aug-11 14:57N 54°06' E 012°06'0 0.0
2019-Aug-11 14:26N 54°06' E 012°06'0 0.0
2019-Aug-11 13:56N 54°06' E 012°06'1 2.5
2019-Aug-11 13:30N 54°07' E 012°06'2 3.6
2019-Aug-11 13:00N 54°09' E 012°06'2 3.5
2019-Aug-11 12:30N 54°10' E 012°06'2 4.7
2019-Aug-11 11:58N 54°13' E 012°04'2 3.5
2019-Aug-11 11:27N 54°14' E 012°03'1 2.5
2019-Aug-11 11:00N 54°15' E 012°02'1 2.7
2019-Aug-11 10:29N 54°14' E 012°03'1 2.8
2019-Aug-11 09:58N 54°13' E 012°04'2 4.5
2019-Aug-11 09:28N 54°11' E 012°06'2 4.1
2019-Aug-11 09:00N 54°09' E 012°06'2 4.6
2019-Aug-11 08:30N 54°07' E 012°06'1 1.3
2019-Aug-11 07:57N 54°06' E 012°06'0 0.0
2019-Aug-11 07:28N 54°06' E 012°06'0 0.0
2019-Aug-11 06:58N 54°06' E 012°06'0 0.0
2019-Aug-11 06:28N 54°06' E 012°06'0 0.0
2019-Aug-11 05:58N 54°06' E 012°06'0 0.0
2019-Aug-11 05:28N 54°06' E 012°06'0 0.0
2019-Aug-11 04:58N 54°06' E 012°06'0 0.0
2019-Aug-11 04:28N 54°06' E 012°06'0 0.0
2019-Aug-11 03:58N 54°06' E 012°06'0 0.0
2019-Aug-11 03:28N 54°06' E 012°06'0 0.0
2019-Aug-11 02:58N 54°06' E 012°06'0 0.0
2019-Aug-11 02:28N 54°06' E 012°06'0 0.0
2019-Aug-11 01:58N 54°06' E 012°06'0 0.0
2019-Aug-11 01:28N 54°06' E 012°06'0 0.0
2019-Aug-11 00:58N 54°06' E 012°06'0 0.0
2019-Aug-11 00:28N 54°06' E 012°06'0 0.0
2019-Aug-10 23:58N 54°06' E 012°06'0 0.0
2019-Aug-10 23:28N 54°06' E 012°06'0 0.0
2019-Aug-10 22:58N 54°06' E 012°06'0 0.0
2019-Aug-10 22:28N 54°06' E 012°06'0 0.0
2019-Aug-10 21:58N 54°06' E 012°06'0 0.0
2019-Aug-10 21:28N 54°06' E 012°06'0 0.0
2019-Aug-10 20:58N 54°06' E 012°06'0 0.0
2019-Aug-10 20:28N 54°06' E 012°06'0 0.0
2019-Aug-10 19:58N 54°06' E 012°06'0 0.0
2019-Aug-10 19:28N 54°06' E 012°06'0 0.0
2019-Aug-10 18:58N 54°06' E 012°06'0 0.0
2019-Aug-10 18:28N 54°06' E 012°06'0 0.0
2019-Aug-10 17:58N 54°06' E 012°06'0 0.0
2019-Aug-10 17:28N 54°06' E 012°06'0 0.0
2019-Aug-10 16:58N 54°06' E 012°06'0 0.0
2019-Aug-10 16:28N 54°06' E 012°06'0 0.0
2019-Aug-10 15:58N 54°06' E 012°06'0 0.0
2019-Aug-10 15:28N 54°06' E 012°06'0 0.0
2019-Aug-10 14:59N 54°06' E 012°06'0 0.5
2019-Aug-10 14:30N 54°06' E 012°07'3 4.4
2019-Aug-10 13:56N 54°09' E 012°06'1 3.1
2019-Aug-10 13:30N 54°10' E 012°06'1 2.8
2019-Aug-10 13:00N 54°11' E 012°05'2 4.1
2019-Aug-10 12:28N 54°13' E 012°03'2 3.7
2019-Aug-10 12:00N 54°14' E 012°02'2 4.2
2019-Aug-10 11:30N 54°16' E 011°59'0 0.7
2019-Aug-10 10:59N 54°16' E 011°59'1 2.8
2019-Aug-10 10:29N 54°15' E 012°01'2 3.9
2019-Aug-10 10:00N 54°13' E 012°03'2 3.1
2019-Aug-10 09:31N 54°12' E 012°04'3 5.6
2019-Aug-10 08:58N 54°09' E 012°06'2 4.5
2019-Aug-10 08:31N 54°07' E 012°06'1 2.3
2019-Aug-10 07:56N 54°06' E 012°06'0 0.0
2019-Aug-10 07:28N 54°06' E 012°06'0 0.0
2019-Aug-10 06:56N 54°06' E 012°06'0 0.0
2019-Aug-10 05:52N 54°06' E 012°06'  

Dump ship's entire track history